createdAt,value
2023-05-21T00:00:51.808Z,12.3
2023-05-21T00:20:50.836Z,12.2
2023-05-21T00:40:51.069Z,12.3
2023-05-21T01:00:50.802Z,12.3
2023-05-21T01:20:54.314Z,12.3
2023-05-21T01:40:52.380Z,12.3
2023-05-21T02:00:52.308Z,12.2
2023-05-21T02:20:50.566Z,12
2023-05-21T02:40:50.410Z,11.9
2023-05-21T03:00:50.057Z,11.7
2023-05-21T03:20:50.525Z,11.6
2023-05-21T03:40:53.486Z,11.5
2023-05-21T04:01:10.918Z,11.3
2023-05-21T04:20:55.849Z,11.3
2023-05-21T04:41:10.283Z,11.2
2023-05-21T05:01:17.580Z,11.7
2023-05-21T05:21:12.653Z,12
2023-05-21T05:41:17.042Z,12.3
2023-05-21T06:01:13.696Z,12.6
2023-05-21T06:21:10.103Z,12.6
2023-05-21T06:41:09.282Z,13
2023-05-21T07:01:11.635Z,13.8
2023-05-21T07:21:10.623Z,13.8
2023-05-21T07:41:10.946Z,14.2
2023-05-21T08:01:10.681Z,14.5
2023-05-21T08:21:16.734Z,15.3
2023-05-21T08:41:09.838Z,15.3
2023-05-21T09:01:17.068Z,16.2
2023-05-21T09:21:15.110Z,16.5
2023-05-21T09:41:10.017Z,16.5
2023-05-21T10:01:15.010Z,16.9
2023-05-21T10:21:12.552Z,17.8
2023-05-21T10:41:10.872Z,17.7
2023-05-21T11:01:12.405Z,18.7
2023-05-21T11:21:16.609Z,19
2023-05-21T11:41:17.509Z,19.5
2023-05-21T12:01:15.855Z,20.1
2023-05-21T12:21:17.163Z,20.6
2023-05-21T12:41:10.723Z,20.5
2023-05-21T13:01:13.635Z,21.2
2023-05-21T13:21:16.527Z,21.2
2023-05-21T13:41:09.861Z,21.7
2023-05-21T14:01:08.095Z,22.3
2023-05-21T14:21:10.159Z,22.3
2023-05-21T14:41:16.389Z,24.5
2023-05-21T15:01:07.458Z,24.4
2023-05-21T15:21:16.564Z,25.1
2023-05-21T15:41:13.383Z,26.6
2023-05-21T16:01:13.275Z,27.2
2023-05-21T16:21:06.239Z,27.1
2023-05-21T16:41:18.759Z,27.4
2023-05-21T17:01:08.186Z,26.5
2023-05-21T17:21:11.843Z,25
2023-05-21T17:41:06.038Z,25
2023-05-21T18:01:14.867Z,23
2023-05-21T18:21:15.892Z,22.2
2023-05-21T18:41:08.404Z,21.3
2023-05-21T19:00:47.554Z,21.2
2023-05-21T19:20:47.383Z,20.1
2023-05-21T19:40:47.841Z,19.8
2023-05-21T20:00:46.344Z,19.1
2023-05-21T20:20:46.758Z,18.4
2023-05-21T20:40:47.482Z,18.4
2023-05-21T21:00:46.388Z,18.1
2023-05-21T21:20:47.970Z,17.4
2023-05-21T21:40:51.298Z,17.5
2023-05-21T22:00:53.738Z,17.3
2023-05-21T22:20:55.551Z,17.2
2023-05-21T22:40:48.159Z,17
2023-05-21T23:00:47.419Z,16.8
2023-05-21T23:20:47.201Z,16.7
2023-05-21T23:40:46.927Z,16.5
